Vieux-Fort の空港の天気 - METARとTAF

ヘウノラ国際空港 ( TLPL / UVF ) - セントルシア Vieux-Fort
飛行場実況気象(Metar)
観測時間09/27 21:00 AST (09/28 01:00 UTC)
風向・風速東南東 6m/s
視程10km以上
天気現象
全天の4割程度の雲 雲底高度 730m
全天の8割程度の雲 雲底高度 2440m
気温28℃
湿度79%
気圧1011hPa
METARTLPL 280100Z 11012KT 9999 SCT024 BKN080 28/24 Q1011 NOSIG
過去の天気等 Google飛行場航空写真 Wunderground天気予報

過去48時間のMETAR

飛行場予報(TAF)
発表時間: 9/27 19:03 AST (9/27 23:03 UTC)
予報対象時間: 27日20時 AST ~ 28日20時 AST
風向・風速東 7m/s
視程10km以上
全天の4割程度の雲 雲底高度 760m
28日2時 AST ~ 28日20時 AST に一時的に
天気現象しゅう雨
少しの積乱雲 雲底高度 490m
全天の8割程度の塔状積雲 雲底高度 550m
27日23時 AST ~ 28日14時 AST に 確率 30% で一時的に
天気現象雷雨
全天の4割程度の積乱雲 雲底高度 490m
TAF TLPL 272303Z 2800/2824 10014KT 9999 SCT025
TEMPO 2806/2824 SHRA FEW016CB BKN018TCU
PROB30 TEMPO 2803/2818 TSRA SCT016CB